Time;durP1;ratioP1;P1;durP2;ratioP2;P2;SDS_P1;SDS_P2;PMS_P1;PMS_P2;Temp;Humidity;BMP_temperature;BMP_pressure;BME280_temperature;BME280_humidity;BME280_pressure;Samples;Min_cycle;Max_cycle;Signal;HPM_P1;HPM_P2
2022/02/12 00:00:24;;;;;;;17.43;6.70;;;-0.70;99.90;;;;;;5070003;27;38072;-79
2022/02/12 00:02:55;;;;;;;20.13;6.00;;;-0.70;99.90;;;;;;5067422;28;37660;-79
2022/02/12 00:05:24;;;;;;;15.57;5.60;;;-0.80;99.90;;;;;;5065644;27;36097;-79
2022/02/12 00:07:51;;;;;;;17.07;6.67;;;-0.80;99.90;;;;;;5070384;27;39852;-79
2022/02/12 00:10:18;;;;;;;16.27;5.60;;;-0.80;99.90;;;;;;5064481;27;37482;-79
2022/02/12 00:12:44;;;;;;;26.73;6.90;;;-0.80;99.90;;;;;;5065905;27;37698;-79
2022/02/12 00:15:10;;;;;;;16.70;5.70;;;-0.70;99.90;;;;;;5067890;27;37428;-79
2022/02/12 00:17:37;;;;;;;19.33;7.07;;;-0.60;99.90;;;;;;5073608;27;38780;-79
2022/02/12 00:20:05;;;;;;;16.13;6.00;;;-0.60;99.90;;;;;;5067051;27;38165;-78
2022/02/12 00:22:31;;;;;;;20.40;6.40;;;-0.60;99.90;;;;;;5052859;28;47054;-80
2022/02/12 00:24:58;;;;;;;17.43;6.63;;;-0.60;99.90;;;;;;5072865;27;37999;-79
2022/02/12 00:27:24;;;;;;;22.27;7.10;;;-0.50;99.90;;;;;;5072437;27;40772;-79
2022/02/12 00:29:50;;;;;;;17.33;7.10;;;-0.20;99.90;;;;;;5079569;28;39073;-79
2022/02/12 00:32:16;;;;;;;20.37;6.23;;;-0.30;99.90;;;;;;5074781;27;38010;-79
2022/02/12 00:34:42;;;;;;;20.07;5.93;;;-0.20;99.90;;;;;;5076600;27;37401;-79
2022/02/12 00:37:08;;;;;;;24.93;7.03;;;0.10;99.90;;;;;;5086776;27;41115;-79
2022/02/12 00:39:34;;;;;;;18.37;6.13;;;0.50;99.90;;;;;;5067436;28;39972;-79
2022/02/12 00:42:01;;;;;;;30.00;6.60;;;0.70;99.90;;;;;;5068381;28;38983;-79
2022/02/12 00:44:27;;;;;;;17.77;6.73;;;0.90;99.90;;;;;;5073739;27;48794;-79
2022/02/12 00:46:55;;;;;;;27.70;7.17;;;1.10;99.90;;;;;;5067032;28;39685;-79
2022/02/12 00:49:22;;;;;;;23.87;6.57;;;1.10;99.90;;;;;;5070251;27;39037;-79
2022/02/12 00:51:49;;;;;;;25.33;5.90;;;1.20;99.90;;;;;;5095055;27;37403;-79
2022/02/12 00:54:15;;;;;;;18.57;6.03;;;1.30;99.90;;;;;;5081970;27;38398;-80
2022/02/12 00:56:41;;;;;;;21.23;6.20;;;1.30;99.90;;;;;;5073485;27;39303;-79
2022/02/12 00:59:07;;;;;;;26.00;6.23;;;1.40;99.90;;;;;;5065525;28;39026;-79
2022/02/12 01:01:34;;;;;;;21.10;5.90;;;1.50;99.90;;;;;;5071105;28;38801;-79
2022/02/12 01:04:02;;;;;;;28.03;6.67;;;1.50;99.90;;;;;;5072739;27;36890;-79
2022/02/12 01:06:29;;;;;;;24.00;6.73;;;1.60;99.90;;;;;;5070524;28;47313;-79
2022/02/12 01:08:55;;;;;;;21.43;5.87;;;1.70;99.90;;;;;;5071961;28;39243;-79
2022/02/12 01:11:22;;;;;;;21.63;6.20;;;1.70;99.90;;;;;;5086834;27;38347;-79
2022/02/12 01:13:48;;;;;;;21.77;5.73;;;1.90;99.90;;;;;;5086332;28;39975;-79
2022/02/12 01:16:14;;;;;;;25.37;6.77;;;1.90;99.90;;;;;;5066970;27;37279;-79
2022/02/12 01:18:40;;;;;;;23.73;5.10;;;2.00;99.90;;;;;;5072863;27;40413;-79
2022/02/12 01:21:06;;;;;;;24.23;5.47;;;2.00;99.90;;;;;;5069694;27;36886;-79
2022/02/12 01:23:32;;;;;;;13.57;4.60;;;2.10;99.90;;;;;;5068967;28;36016;-78
2022/02/12 01:25:59;;;;;;;16.93;5.93;;;2.20;99.90;;;;;;5062619;27;39521;-79
2022/02/12 01:28:25;;;;;;;30.13;5.47;;;2.20;99.90;;;;;;5060869;28;38929;-79
2022/02/12 01:30:52;;;;;;;20.67;4.10;;;2.10;99.90;;;;;;5069632;27;39230;-79
2022/02/12 01:33:18;;;;;;;23.03;4.77;;;2.20;99.90;;;;;;5073462;28;36335;-79
2022/02/12 01:35:44;;;;;;;20.10;4.53;;;2.20;99.90;;;;;;5071452;27;39170;-79
2022/02/12 01:38:10;;;;;;;23.23;5.70;;;2.10;99.90;;;;;;5068966;28;39886;-79
2022/02/12 01:40:36;;;;;;;18.43;4.30;;;2.20;99.90;;;;;;5073914;27;38319;-79
2022/02/12 01:43:03;;;;;;;17.83;4.13;;;2.30;99.90;;;;;;5069340;28;37095;-78
2022/02/12 01:45:30;;;;;;;19.07;4.53;;;2.30;99.90;;;;;;5075468;28;37728;-79
2022/02/12 01:47:56;;;;;;;20.00;4.87;;;2.40;99.90;;;;;;5071743;27;39056;-79
2022/02/12 01:50:23;;;;;;;19.53;4.47;;;2.40;99.90;;;;;;5065317;27;38234;-79
2022/02/12 01:52:49;;;;;;;21.60;4.97;;;2.40;99.90;;;;;;5070812;27;38410;-79
2022/02/12 01:55:15;;;;;;;14.27;4.67;;;2.40;99.90;;;;;;5072290;28;39423;-79
2022/02/12 01:57:41;;;;;;;22.77;5.30;;;2.40;99.90;;;;;;5054162;28;38035;-79
2022/02/12 02:00:10;;;;;;;15.80;4.63;;;2.40;99.90;;;;;;5072186;27;39117;-79
2022/02/12 02:02:39;;;;;;;22.33;5.00;;;2.40;99.90;;;;;;5073793;28;38190;-79
2022/02/12 02:05:12;;;;;;;18.40;4.70;;;2.40;99.90;;;;;;5071520;27;38296;-78
2022/02/12 02:07:38;;;;;;;;;;;2.40;99.90;;;;;;5075418;28;39409;-79
2022/02/12 02:10:05;;;;;;;16.60;4.77;;;2.40;99.90;;;;;;5063265;27;37574;-78
2022/02/12 02:12:32;;;;;;;21.03;4.90;;;2.40;99.90;;;;;;5075048;27;38622;-79
2022/02/12 02:14:58;;;;;;;21.03;4.77;;;2.40;99.90;;;;;;5075534;28;39107;-79
2022/02/12 02:17:24;;;;;;;23.53;5.83;;;2.40;99.90;;;;;;5074286;27;39076;-79
2022/02/12 02:19:50;;;;;;;18.27;4.90;;;2.30;99.90;;;;;;5068889;27;38336;-79
2022/02/12 02:22:20;;;;;;;18.13;5.20;;;2.30;99.90;;;;;;5074035;27;37742;-80
2022/02/12 02:24:46;;;;;;;16.30;4.87;;;2.30;99.90;;;;;;5068757;28;37806;-79
2022/02/12 02:27:14;;;;;;;22.90;5.27;;;2.30;99.90;;;;;;5077914;27;37740;-79
2022/02/12 02:29:42;;;;;;;21.07;5.37;;;2.30;99.90;;;;;;5073579;28;38544;-79
2022/02/12 02:32:09;;;;;;;23.03;5.23;;;2.30;99.90;;;;;;5085528;27;39168;-79
2022/02/12 02:34:36;;;;;;;22.63;5.37;;;2.30;99.90;;;;;;5071478;28;40538;-79
2022/02/12 02:37:03;;;;;;;19.60;5.50;;;2.30;99.90;;;;;;5073702;27;39088;-78
2022/02/12 02:39:29;;;;;;;17.70;6.13;;;2.30;99.90;;;;;;5073425;27;38343;-79
2022/02/12 02:41:55;;;;;;;26.33;5.33;;;2.30;99.90;;;;;;5066016;28;40297;-79
2022/02/12 02:44:22;;;;;;;15.60;4.70;;;2.40;99.90;;;;;;5070095;28;39742;-79
2022/02/12 02:46:48;;;;;;;16.77;4.60;;;2.30;99.90;;;;;;5087162;27;39063;-79
2022/02/12 02:49:14;;;;;;;16.80;4.50;;;2.30;99.90;;;;;;5067507;28;39184;-79
2022/02/12 02:57:10;;;;;;;15.37;4.60;;;2.30;99.90;;;;;;5066446;27;39093;-79
2022/02/12 02:59:36;;;;;;;12.53;5.00;;;2.30;99.90;;;;;;5069216;28;39265;-79
2022/02/12 03:02:02;;;;;;;17.93;5.20;;;2.30;99.90;;;;;;5072136;27;38088;-78
2022/02/12 03:04:28;;;;;;;27.53;5.30;;;2.40;99.90;;;;;;5065629;28;38043;-79
2022/02/12 03:06:54;;;;;;;19.73;4.60;;;2.40;99.90;;;;;;5070511;27;39003;-79
2022/02/12 03:09:21;;;;;;;15.77;4.77;;;2.30;99.90;;;;;;5071644;28;38982;-80
2022/02/12 03:11:48;;;;;;;24.67;5.23;;;2.30;99.90;;;;;;5070900;27;38142;-79
2022/02/12 03:14:14;;;;;;;18.83;5.03;;;2.30;99.90;;;;;;5073201;28;39624;-79
2022/02/12 03:16:40;;;;;;;19.30;5.07;;;2.20;99.90;;;;;;5071390;28;38625;-79
2022/02/12 03:19:06;;;;;;;20.53;4.80;;;2.10;99.90;;;;;;5071415;27;39204;-79
2022/02/12 03:21:32;;;;;;;24.13;5.27;;;2.10;99.90;;;;;;5072986;27;39130;-79
2022/02/12 03:23:58;;;;;;;17.60;5.13;;;2.00;99.90;;;;;;5075004;28;39182;-79
2022/02/12 03:26:24;;;;;;;22.20;4.97;;;2.00;99.90;;;;;;5073880;28;39612;-79
2022/02/12 03:28:50;;;;;;;18.73;4.73;;;1.90;99.90;;;;;;5080756;27;38284;-79
2022/02/12 03:31:16;;;;;;;22.93;5.23;;;1.80;99.90;;;;;;5073864;27;37210;-79
2022/02/12 03:33:43;;;;;;;15.77;4.93;;;1.90;99.90;;;;;;5075932;28;38861;-79
2022/02/12 03:36:09;;;;;;;18.67;5.50;;;1.90;99.90;;;;;;5074634;28;38654;-79
2022/02/12 03:38:39;;;;;;;16.97;4.97;;;1.90;99.90;;;;;;5074129;28;38863;-79
2022/02/12 03:41:07;;;;;;;18.70;5.03;;;2.00;99.90;;;;;;5071825;28;38750;-79
2022/02/12 03:43:37;;;;;;;26.63;5.50;;;2.00;99.90;;;;;;5070530;28;40603;-79
2022/02/12 03:46:05;;;;;;;24.20;5.20;;;2.00;99.90;;;;;;5073514;27;39106;-78
2022/02/12 03:48:31;;;;;;;18.83;5.83;;;2.00;99.90;;;;;;5072142;28;38035;-79
2022/02/12 03:50:57;;;;;;;18.10;5.50;;;1.90;99.90;;;;;;5068121;28;37113;-79
2022/02/12 03:53:24;;;;;;;21.67;5.53;;;1.90;99.90;;;;;;5073551;28;38577;-79
2022/02/12 03:55:50;;;;;;;22.97;5.93;;;1.80;99.90;;;;;;5071342;28;37267;-79
2022/02/12 03:58:18;;;;;;;21.83;5.60;;;1.80;99.90;;;;;;5076462;27;39264;-79
2022/02/12 04:00:46;;;;;;;18.67;6.13;;;1.80;99.90;;;;;;5092285;27;37882;-79
2022/02/12 04:03:13;;;;;;;32.20;6.97;;;1.80;99.90;;;;;;5075692;27;38889;-79
2022/02/12 04:05:41;;;;;;;27.60;6.00;;;1.80;99.90;;;;;;5076125;28;38501;-79
2022/02/12 04:08:07;;;;;;;29.23;6.20;;;1.80;99.90;;;;;;5068950;27;38497;-79
2022/02/12 04:10:35;;;;;;;25.27;6.33;;;1.80;99.90;;;;;;5075933;27;37316;-79
2022/02/12 04:13:01;;;;;;;19.43;5.83;;;1.90;99.90;;;;;;5073704;27;37666;-78
2022/02/12 04:15:28;;;;;;;27.40;7.90;;;1.90;99.90;;;;;;5073008;27;38634;-79
2022/02/12 04:17:54;;;;;;;21.23;5.60;;;1.80;99.90;;;;;;5068171;28;38417;-80
2022/02/12 04:20:22;;;;;;;24.23;6.97;;;1.90;99.90;;;;;;5069767;27;36742;-79
2022/02/12 04:22:49;;;;;;;23.23;6.63;;;1.80;99.90;;;;;;5072269;27;37832;-79
2022/02/12 04:25:17;;;;;;;21.50;7.07;;;1.80;99.90;;;;;;5065823;27;39601;-79
2022/02/12 04:27:44;;;;;;;27.60;7.50;;;1.90;99.90;;;;;;5070220;27;37409;-79
2022/02/12 04:30:11;;;;;;;22.30;6.63;;;1.90;99.90;;;;;;5063887;27;37585;-79
2022/02/12 04:32:38;;;;;;;27.63;7.93;;;1.90;99.90;;;;;;5074121;27;38951;-79
2022/02/12 04:35:06;;;;;;;26.50;8.00;;;1.80;99.90;;;;;;5073226;28;39313;-79
2022/02/12 04:37:32;;;;;;;24.40;8.07;;;1.80;99.90;;;;;;5081115;28;39725;-79
2022/02/12 04:39:58;;;;;;;24.83;7.67;;;1.80;99.90;;;;;;5075636;28;37946;-79
2022/02/12 04:42:25;;;;;;;21.10;7.03;;;1.80;99.90;;;;;;5075687;28;38110;-79
2022/02/12 04:44:53;;;;;;;16.87;7.10;;;1.80;99.90;;;;;;5073222;27;38380;-79
2022/02/12 04:47:20;;;;;;;23.07;7.80;;;1.70;99.90;;;;;;5070210;27;39116;-79
2022/02/12 04:49:48;;;;;;;22.43;7.10;;;1.70;99.90;;;;;;5076218;28;37429;-79
2022/02/12 04:52:16;;;;;;;29.37;9.30;;;1.70;99.90;;;;;;5068037;28;40338;-79
2022/02/12 04:54:42;;;;;;;18.93;8.23;;;1.70;99.90;;;;;;5072700;28;38889;-79
2022/02/12 04:57:09;;;;;;;35.97;7.90;;;1.70;99.90;;;;;;5078458;27;38990;-80
2022/02/12 04:59:35;;;;;;;25.40;8.13;;;1.70;99.90;;;;;;5074266;28;37825;-79
2022/02/12 05:02:02;;;;;;;27.97;8.37;;;1.70;99.90;;;;;;5078727;28;39780;-79
2022/02/12 05:04:28;;;;;;;27.03;8.47;;;1.70;99.90;;;;;;5075273;28;47189;-79
2022/02/12 05:06:54;;;;;;;31.43;9.03;;;1.60;99.90;;;;;;5084013;27;38528;-79
2022/02/12 05:09:20;;;;;;;26.77;8.60;;;1.60;99.90;;;;;;5084532;28;38339;-79
2022/02/12 05:11:47;;;;;;;33.93;9.30;;;1.70;99.90;;;;;;5076252;27;39280;-79
2022/02/12 05:14:15;;;;;;;29.03;9.97;;;1.70;99.90;;;;;;5078988;27;38648;-79
2022/02/12 05:16:41;;;;;;;38.93;9.60;;;1.70;99.90;;;;;;5070023;28;39779;-79
2022/02/12 05:19:07;;;;;;;30.97;9.57;;;1.70;99.90;;;;;;5075476;27;37280;-79
2022/02/12 05:21:34;;;;;;;29.77;10.03;;;1.80;99.90;;;;;;5073250;28;40965;-79
2022/02/12 05:24:00;;;;;;;30.87;9.73;;;1.70;99.90;;;;;;5079851;27;38944;-79
2022/02/12 05:26:29;;;;;;;26.33;9.60;;;1.70;99.90;;;;;;5070155;27;38312;-79
2022/02/12 05:28:55;;;;;;;26.43;10.20;;;1.70;99.90;;;;;;5076647;28;37231;-79
2022/02/12 05:31:22;;;;;;;27.70;9.90;;;1.60;99.90;;;;;;5079341;27;39255;-79
2022/02/12 05:33:48;;;;;;;26.57;9.40;;;1.60;99.90;;;;;;5072854;28;38929;-78
2022/02/12 05:36:14;;;;;;;22.83;9.90;;;1.60;99.90;;;;;;5073584;27;38055;-78
2022/02/12 05:38:41;;;;;;;28.00;10.67;;;1.60;99.90;;;;;;5075158;27;37199;-78
2022/02/12 05:41:09;;;;;;;30.70;10.43;;;1.50;99.90;;;;;;5076314;27;38635;-78
2022/02/12 05:43:36;;;;;;;21.47;9.90;;;1.40;99.90;;;;;;5072434;28;37998;-79
2022/02/12 05:46:03;;;;;;;32.37;10.60;;;1.40;99.90;;;;;;5069177;28;38945;-78
2022/02/12 05:48:29;;;;;;;32.23;11.00;;;1.40;99.90;;;;;;5073313;28;37314;-79
2022/02/12 05:50:56;;;;;;;28.53;9.67;;;1.40;99.90;;;;;;5075543;28;38986;-79
2022/02/12 05:53:23;;;;;;;35.27;10.10;;;1.40;99.90;;;;;;5078133;27;39051;-79
2022/02/12 05:55:49;;;;;;;31.17;11.60;;;1.40;99.90;;;;;;5071015;27;39908;-79
2022/02/12 05:58:16;;;;;;;29.47;11.60;;;1.40;99.90;;;;;;5073076;28;38533;-79
2022/02/12 06:00:42;;;;;;;36.87;13.07;;;1.40;99.90;;;;;;5085032;27;38395;-79
2022/02/12 06:03:08;;;;;;;29.67;10.83;;;1.30;99.90;;;;;;5067191;28;38755;-79
2022/02/12 06:05:35;;;;;;;29.07;11.57;;;1.30;99.90;;;;;;5074756;28;39826;-79
2022/02/12 06:08:01;;;;;;;23.53;10.83;;;1.30;99.90;;;;;;5074219;28;38408;-78
2022/02/12 06:10:28;;;;;;;34.33;12.13;;;1.20;99.90;;;;;;5073912;27;40371;-79
2022/02/12 06:12:54;;;;;;;27.47;11.27;;;1.20;99.90;;;;;;5073195;27;39577;-78
2022/02/12 06:15:21;;;;;;;25.07;11.13;;;1.20;99.90;;;;;;5066242;28;38239;-78
2022/02/12 06:17:48;;;;;;;25.83;11.27;;;1.20;99.90;;;;;;5072306;28;39800;-78
2022/02/12 06:20:14;;;;;;;26.30;10.83;;;1.10;99.90;;;;;;5073899;27;38835;-79
2022/02/12 06:22:41;;;;;;;26.10;11.27;;;1.00;99.90;;;;;;5077284;27;38030;-79
2022/02/12 06:25:08;;;;;;;31.50;12.07;;;0.90;99.90;;;;;;5071807;27;40020;-79
2022/02/12 06:27:34;;;;;;;27.23;12.57;;;0.90;99.90;;;;;;5076882;27;36903;-79
2022/02/12 06:30:01;;;;;;;35.50;13.37;;;0.90;99.90;;;;;;5073942;28;39765;-78
2022/02/12 06:32:27;;;;;;;33.83;13.00;;;0.80;99.90;;;;;;5074863;27;38258;-79
2022/02/12 06:34:59;;;;;;;39.07;15.47;;;0.80;99.90;;;;;;5075244;27;37915;-79
2022/02/12 06:37:25;;;;;;;32.72;12.05;;;0.80;99.90;;;;;;5071270;28;36359;-79
2022/02/12 06:39:51;;;;;;;28.20;12.10;;;0.80;99.90;;;;;;5076437;28;39023;-79
2022/02/12 06:42:17;;;;;;;37.47;12.60;;;0.80;99.90;;;;;;5072268;27;37444;-78
2022/02/12 06:44:44;;;;;;;31.77;12.93;;;0.80;99.90;;;;;;5068430;28;38081;-79
2022/02/12 06:47:10;;;;;;;32.10;13.70;;;0.80;99.90;;;;;;5071535;28;37965;-78
2022/02/12 06:49:37;;;;;;;32.77;12.77;;;0.80;99.90;;;;;;5076289;28;38391;-79
2022/02/12 06:52:04;;;;;;;30.97;14.00;;;0.90;99.90;;;;;;5071804;27;38094;-79
2022/02/12 06:54:30;;;;;;;37.87;14.97;;;0.90;99.90;;;;;;5074542;28;38616;-79
2022/02/12 06:56:58;;;;;;;34.03;13.27;;;1.00;99.90;;;;;;5077812;28;36558;-78
2022/02/12 06:59:24;;;;;;;32.90;13.10;;;1.00;99.90;;;;;;5075530;27;39801;-79
2022/02/12 07:01:50;;;;;;;35.50;13.33;;;1.00;99.90;;;;;;5074393;27;38417;-79
2022/02/12 07:04:16;;;;;;;31.83;14.10;;;1.00;99.90;;;;;;5073716;28;39033;-79
2022/02/12 07:06:43;;;;;;;37.40;13.90;;;1.00;99.90;;;;;;5071815;28;36376;-79
2022/02/12 07:09:11;;;;;;;32.33;12.90;;;1.00;99.90;;;;;;5074232;28;37497;-79
2022/02/12 07:11:38;;;;;;;33.43;12.83;;;1.00;99.90;;;;;;5073098;27;37575;-80
2022/02/12 07:14:04;;;;;;;34.33;14.43;;;1.10;99.90;;;;;;5081967;27;37829;-78
2022/02/12 07:16:31;;;;;;;33.93;14.23;;;1.10;99.90;;;;;;5074816;27;36763;-79
2022/02/12 07:18:57;;;;;;;41.30;13.33;;;1.10;99.90;;;;;;5087450;28;39014;-79
2022/02/12 07:21:23;;;;;;;37.07;13.47;;;1.10;99.90;;;;;;5078620;27;39133;-79
2022/02/12 07:23:49;;;;;;;40.13;13.83;;;1.10;99.90;;;;;;5076149;27;36073;-79
2022/02/12 07:26:16;;;;;;;34.67;14.60;;;1.10;99.90;;;;;;5076846;27;37398;-79
2022/02/12 07:28:42;;;;;;;38.83;13.90;;;1.20;99.90;;;;;;5070140;28;39611;-79
2022/02/12 07:31:11;;;;;;;33.70;13.73;;;1.20;99.90;;;;;;5075662;27;38359;-79
2022/02/12 07:33:37;;;;;;;29.53;13.27;;;1.20;99.90;;;;;;5078289;27;38183;-79
2022/02/12 07:36:04;;;;;;;34.00;13.70;;;1.20;99.90;;;;;;5073436;28;38978;-78
2022/02/12 07:38:30;;;;;;;31.90;13.47;;;1.20;99.90;;;;;;5071132;28;39119;-79
2022/02/12 07:40:56;;;;;;;34.40;14.13;;;1.20;99.90;;;;;;5074178;27;40159;-78
2022/02/12 07:43:22;;;;;;;42.77;14.23;;;1.20;99.90;;;;;;5069603;28;38626;-78
2022/02/12 07:45:48;;;;;;;35.03;12.97;;;1.20;99.90;;;;;;5067915;27;37142;-78
2022/02/12 07:48:14;;;;;;;29.93;14.40;;;1.20;99.90;;;;;;5071449;27;37650;-79
2022/02/12 07:50:40;;;;;;;37.70;14.00;;;1.20;99.90;;;;;;5076505;27;39054;-78
2022/02/12 07:53:06;;;;;;;35.50;13.27;;;1.20;99.90;;;;;;5069882;27;37821;-78
2022/02/12 07:55:32;;;;;;;39.50;14.17;;;1.30;99.90;;;;;;5068562;27;37480;-79
2022/02/12 07:57:59;;;;;;;45.13;15.00;;;1.30;99.90;;;;;;5071662;27;40100;-79
2022/02/12 08:00:25;;;;;;;32.10;13.93;;;1.30;99.90;;;;;;5069231;27;39394;-79
2022/02/12 08:02:54;;;;;;;29.70;12.17;;;1.40;99.90;;;;;;5073671;27;38547;-79
2022/02/12 08:05:20;;;;;;;36.33;15.10;;;1.40;99.90;;;;;;5072683;28;37095;-79
2022/02/12 08:07:46;;;;;;;30.87;13.27;;;1.40;99.90;;;;;;5054649;28;38840;-80
2022/02/12 08:13:00;;;;;;;37.87;13.20;;;1.50;99.90;;;;;;5071606;28;38565;-79
2022/02/12 08:15:26;;;;;;;30.47;12.77;;;1.60;99.90;;;;;;5071406;27;38345;-79
2022/02/12 08:17:52;;;;;;;35.77;12.40;;;1.60;99.90;;;;;;5073660;28;39876;-79
2022/02/12 08:20:18;;;;;;;31.80;12.27;;;1.60;99.90;;;;;;5072801;27;37416;-79
2022/02/12 08:22:44;;;;;;;34.13;12.47;;;1.70;99.90;;;;;;5072733;28;39319;-79
2022/02/12 08:25:11;;;;;;;35.10;11.50;;;1.80;99.90;;;;;;5075914;28;36412;-78
2022/02/12 08:27:38;;;;;;;31.40;12.17;;;1.80;99.90;;;;;;5071292;27;38912;-79
2022/02/12 08:30:06;;;;;;;29.10;11.20;;;1.80;99.90;;;;;;5080537;28;39085;-79
2022/02/12 08:32:32;;;;;;;28.17;11.77;;;1.80;99.90;;;;;;5087678;27;46280;-79
2022/02/12 08:34:58;;;;;;;31.53;11.87;;;1.90;99.90;;;;;;5079009;27;37816;-80
2022/02/12 08:37:24;;;;;;;31.43;11.53;;;1.90;99.90;;;;;;5072400;27;39067;-79
2022/02/12 08:39:51;;;;;;;31.27;11.37;;;2.00;99.90;;;;;;5079633;28;40371;-79
2022/02/12 08:42:20;;;;;;;33.30;11.67;;;2.00;99.90;;;;;;5070418;27;39193;-78
2022/02/12 08:44:47;;;;;;;36.33;11.37;;;2.10;99.90;;;;;;5072887;28;38252;-79
2022/02/12 08:47:14;;;;;;;30.60;12.00;;;2.20;99.90;;;;;;5050661;28;40492;-78
2022/02/12 08:49:40;;;;;;;39.73;11.33;;;2.20;99.90;;;;;;5074114;27;38439;-79
2022/02/12 08:52:07;;;;;;;26.23;10.23;;;2.30;99.90;;;;;;5071611;27;38540;-78
2022/02/12 08:54:37;;;;;;;31.80;10.67;;;2.30;99.90;;;;;;5058284;28;39576;-78
2022/02/12 08:57:04;;;;;;;26.40;11.57;;;2.40;99.90;;;;;;5073260;27;39652;-78
2022/02/12 08:59:30;;;;;;;34.03;13.13;;;2.40;99.90;;;;;;5075725;28;38922;-78
2022/02/12 09:01:57;;;;;;;35.73;11.23;;;2.40;99.90;;;;;;5070786;27;38521;-78
2022/02/12 09:04:23;;;;;;;30.23;10.73;;;2.50;99.90;;;;;;5077990;28;37932;-78
2022/02/12 09:06:50;;;;;;;28.87;11.23;;;2.60;99.90;;;;;;5071644;27;39011;-78
2022/02/12 09:09:16;;;;;;;31.40;11.37;;;2.60;99.90;;;;;;5073884;27;39655;-78
2022/02/12 09:11:43;;;;;;;24.97;10.63;;;2.70;99.90;;;;;;5076272;27;37905;-78
2022/02/12 09:14:12;;;;;;;28.83;11.73;;;2.80;99.90;;;;;;5074596;27;37691;-78
2022/02/12 09:16:39;;;;;;;26.47;11.43;;;2.90;99.90;;;;;;5069005;27;39142;-79
2022/02/12 09:19:07;;;;;;;32.93;12.17;;;3.00;99.90;;;;;;5070664;28;40015;-78
2022/02/12 09:21:34;;;;;;;23.80;10.33;;;3.10;99.90;;;;;;5071963;27;39042;-78
2022/02/12 09:24:01;;;;;;;28.83;11.13;;;3.20;99.90;;;;;;5073763;28;36097;-79
2022/02/12 09:26:30;;;;;;;29.53;10.00;;;3.30;99.90;;;;;;5072420;28;47835;-80
2022/02/12 09:29:02;;;;;;;22.83;10.00;;;3.40;99.90;;;;;;5073805;28;38628;-79
2022/02/12 09:31:28;;;;;;;29.83;10.03;;;3.50;99.90;;;;;;5072984;27;48815;-79
2022/02/12 09:33:54;;;;;;;30.23;12.20;;;3.50;99.90;;;;;;5072499;28;37763;-80
2022/02/12 09:36:21;;;;;;;23.30;9.97;;;3.60;99.90;;;;;;5068336;27;40874;-80
2022/02/12 09:38:47;;;;;;;28.63;9.40;;;3.70;99.90;;;;;;5070033;27;38099;-79
2022/02/12 09:41:14;;;;;;;27.33;10.33;;;3.70;99.90;;;;;;5068476;27;39023;-80
2022/02/12 09:43:42;;;;;;;24.27;7.63;;;3.80;99.90;;;;;;5067872;28;37386;-80
2022/02/12 09:46:27;;;;;;;24.27;8.03;;;3.80;99.90;;;;;;5073915;27;20069;-80
2022/02/12 09:48:54;;;;;;;22.77;7.73;;;3.80;99.90;;;;;;5075943;28;39434;-80
2022/02/12 09:51:23;;;;;;;24.73;7.93;;;3.90;99.90;;;;;;5072425;27;39233;-80
2022/02/12 09:53:50;;;;;;;19.03;7.93;;;4.00;99.90;;;;;;5073796;28;37715;-81
2022/02/12 09:56:16;;;;;;;18.17;7.40;;;4.00;99.90;;;;;;5073097;27;39548;-82
2022/02/12 09:58:42;;;;;;;24.27;7.77;;;4.00;99.90;;;;;;5074169;28;38228;-81
2022/02/12 10:01:09;;;;;;;21.17;7.10;;;4.20;99.90;;;;;;5078005;27;38686;-82
2022/02/12 10:03:38;;;;;;;22.77;8.17;;;4.10;99.90;;;;;;5067623;28;40665;-81
2022/02/12 10:06:04;;;;;;;14.90;7.27;;;4.20;99.90;;;;;;5074470;28;39360;-81
2022/02/12 10:08:34;;;;;;;25.97;7.50;;;4.20;99.90;;;;;;5073310;28;38420;-81
2022/02/12 10:11:16;;;;;;;26.50;8.23;;;4.20;99.90;;;;;;5082176;27;37926;-80
2022/02/12 10:13:43;;;;;;;20.67;8.27;;;4.20;99.90;;;;;;5076077;27;49634;-81
2022/02/12 10:16:09;;;;;;;25.70;7.23;;;4.30;99.90;;;;;;5072093;28;39796;-81
2022/02/12 10:18:39;;;;;;;20.63;7.23;;;4.40;99.90;;;;;;5074305;28;38585;-82
2022/02/12 10:21:06;;;;;;;17.30;6.97;;;4.40;99.90;;;;;;5071061;28;36917;-80
2022/02/12 10:23:35;;;;;;;25.43;6.80;;;4.50;99.90;;;;;;5076931;28;37994;-80
2022/02/12 10:26:01;;;;;;;17.83;7.47;;;4.60;99.90;;;;;;5079256;27;38640;-78
2022/02/12 10:29:01;;;;;;;21.43;7.00;;;4.60;99.90;;;;;;5076600;27;38108;-80
2022/02/12 10:31:28;;;;;;;20.33;6.67;;;4.70;99.90;;;;;;5086654;28;37521;-79
2022/02/12 10:33:54;;;;;;;22.13;6.77;;;4.80;99.90;;;;;;5080691;28;37422;-80
2022/02/12 10:36:22;;;;;;;17.40;6.87;;;4.70;99.90;;;;;;5080342;28;39282;-81
2022/02/12 10:38:54;;;;;;;23.13;7.03;;;4.80;99.90;;;;;;5080954;28;39245;-80
2022/02/12 10:41:22;;;;;;;18.88;7.10;;;4.80;99.90;;;;;;5077653;28;38625;-77
2022/02/12 10:43:50;;;;;;;17.77;6.63;;;4.90;99.90;;;;;;5080966;28;37709;-77
2022/02/12 10:46:17;;;;;;;20.17;6.90;;;4.90;99.90;;;;;;5076779;28;40584;-79
2022/02/12 10:48:43;;;;;;;16.00;6.80;;;5.00;99.90;;;;;;5081152;28;37979;-78
2022/02/12 10:51:14;;;;;;;21.57;6.67;;;5.00;99.90;;;;;;5073485;27;36989;-79
2022/02/12 10:54:06;;;;;;;15.50;6.53;;;5.20;99.90;;;;;;5080678;27;38236;-79
2022/02/12 10:56:57;;;;;;;21.58;7.35;;;5.20;99.90;;;;;;5071086;27;48499;-78
2022/02/12 10:59:24;;;;;;;23.27;7.63;;;5.30;99.90;;;;;;5076324;27;38154;-77
2022/02/12 11:01:51;;;;;;;16.80;5.97;;;5.50;99.90;;;;;;5081345;27;37951;-78
2022/02/12 11:04:19;;;;;;;18.70;7.17;;;5.60;99.90;;;;;;5081519;27;36333;-77
2022/02/12 11:06:47;;;;;;;16.00;5.83;;;5.60;99.90;;;;;;5073323;27;39168;-78
2022/02/12 11:09:15;;;;;;;22.70;5.77;;;5.70;99.90;;;;;;5080498;28;39581;-78
2022/02/12 11:11:41;;;;;;;16.87;5.80;;;5.70;99.90;;;;;;5081781;27;37982;-78
2022/02/12 11:14:08;;;;;;;15.37;5.03;;;5.90;99.90;;;;;;5070907;28;37805;-78
2022/02/12 11:16:35;;;;;;;19.73;5.90;;;5.90;99.90;;;;;;5076372;28;39961;-77
2022/02/12 11:19:02;;;;;;;17.33;5.93;;;6.10;99.90;;;;;;5070518;28;38555;-79
2022/02/12 11:21:29;;;;;;;11.57;5.13;;;6.20;99.90;;;;;;5084455;27;37679;-79
2022/02/12 11:24:06;;;;;;;13.03;3.83;;;6.20;99.90;;;;;;5080082;27;37091;-79
2022/02/12 11:26:49;;;;;;;10.30;3.53;;;6.30;99.90;;;;;;5074602;27;49079;-79
2022/02/12 11:29:40;;;;;;;9.90;2.97;;;6.40;99.90;;;;;;5082153;28;39187;-80
2022/02/12 11:32:19;;;;;;;11.53;2.87;;;6.40;99.90;;;;;;5078125;27;36730;-80
2022/02/12 11:35:08;;;;;;;9.03;3.03;;;6.60;99.90;;;;;;5077571;28;36445;-79
2022/02/12 11:37:38;;;;;;;13.00;3.10;;;6.70;99.90;;;;;;5078312;28;46631;-79
2022/02/12 11:40:28;;;;;;;13.67;3.97;;;6.90;99.90;;;;;;5080944;27;38591;-78
2022/02/12 11:43:03;;;;;;;11.13;3.47;;;7.00;99.90;;;;;;5087332;27;38270;-81
2022/02/12 11:45:36;;;;;;;8.83;2.83;;;6.80;99.90;;;;;;5085650;27;47545;-80
2022/02/12 11:48:29;;;;;;;14.80;3.23;;;6.80;99.90;;;;;;5102477;27;39763;-80
2022/02/12 11:51:07;;;;;;;13.13;3.20;;;6.80;99.90;;;;;;5083824;28;47283;-78
2022/02/12 11:53:38;;;;;;;15.90;3.50;;;6.80;99.90;;;;;;5074821;28;47654;-79
2022/02/12 11:56:07;;;;;;;23.33;3.67;;;6.90;99.90;;;;;;5081142;27;38335;-78
2022/02/12 11:58:42;;;;;;;12.87;3.03;;;6.90;99.90;;;;;;5076654;28;38341;-79
2022/02/12 12:01:32;;;;;;;7.37;2.93;;;7.00;99.90;;;;;;5087101;27;38677;-83
2022/02/12 12:04:11;;;;;;;16.23;3.67;;;6.90;99.90;;;;;;5074738;28;36946;-80
2022/02/12 12:07:11;;;;;;;10.07;3.60;;;7.00;99.90;;;;;;5081368;28;48824;-81
2022/02/12 12:10:05;;;;;;;9.30;3.43;;;7.00;99.90;;;;;;5075470;27;47431;-81
2022/02/12 12:12:31;;;;;;;11.67;3.30;;;7.00;99.90;;;;;;5069921;28;47720;-81
2022/02/12 12:15:21;;;;;;;10.87;2.97;;;7.00;99.90;;;;;;5083625;27;39125;-81
2022/02/12 12:17:57;;;;;;;14.87;2.97;;;7.20;99.90;;;;;;5051251;28;47485;-80
2022/02/12 12:20:44;;;;;;;10.00;3.20;;;7.40;99.90;;;;;;5081123;27;38952;-79
2022/02/12 12:23:12;;;;;;;7.27;2.97;;;7.40;99.90;;;;;;5082723;27;38510;-79
2022/02/12 12:26:00;;;;;;;10.20;3.20;;;7.40;99.90;;;;;;5086971;27;38275;-79
2022/02/12 12:28:37;;;;;;;12.67;4.40;;;7.40;99.90;;;;;;5077091;28;47939;-80
2022/02/12 12:31:07;;;;;;;10.30;3.97;;;7.50;99.90;;;;;;5075964;27;38765;-80
2022/02/12 12:33:41;;;;;;;9.97;2.90;;;7.60;99.90;;;;;;5082336;28;38208;-80
2022/02/12 12:36:12;;;;;;;10.67;2.93;;;7.60;99.90;;;;;;5078209;28;37523;-81
2022/02/12 12:38:47;;;;;;;14.23;3.53;;;7.50;99.90;;;;;;5077817;28;37604;-81
2022/02/12 12:41:29;;;;;;;13.13;3.80;;;7.70;99.90;;;;;;5076434;27;37765;-81
2022/02/12 12:44:18;;;;;;;14.93;3.37;;;7.70;99.90;;;;;;5080135;27;38523;-80
2022/02/12 12:46:49;;;;;;;9.17;2.70;;;7.60;99.90;;;;;;5081264;27;49003;-81
2022/02/12 12:49:39;;;;;;;14.47;2.57;;;7.60;99.90;;;;;;5080204;27;38049;-82
2022/02/12 12:52:11;;;;;;;10.60;3.07;;;7.70;99.90;;;;;;5083279;28;38248;-81
2022/02/12 12:54:41;;;;;;;10.20;2.50;;;7.70;99.90;;;;;;5080813;27;39552;-80
2022/02/12 12:57:10;;;;;;;9.70;2.53;;;7.80;99.90;;;;;;5075098;28;38562;-80